EDAK weather

Gro├čenhain Airport
Gro├čenhain, Saxony, Germany

Public forecast

Using degrees Celsius for public forecast. Weather courtesy of forecast.io.

METAR (pilot weather report)

Closest report is Dresden Airport, 13.2 nm (24.4 km) SE. Retrieved 2019/09/21 05:20 UTC (22 minutes ago):

EDDC 210520Z 15003KT CAVOK 05/04 Q1025 NOSIG

TAF (pilot weather forecast)

Forecast is more than 12 hours old.

Closest forecast is Dresden Airport, 13.2 nm (24.4 km) SE. Retrieved 2019/09/20 00:27 UTC (1 day ago):

TAF EDDC 202300Z 2100/2124 18006KT CAVOK BECMG 2115/2118 12007KT